Time;durP1;ratioP1;P1;durP2;ratioP2;P2;SDS_P1;SDS_P2;PMS_P1;PMS_P2;Temp;Humidity;BMP_temperature;BMP_pressure;BME280_temperature;BME280_humidity;BME280_pressure;Samples;Min_cycle;Max_cycle;Signal;HPM_P1;HPM_P2
2022/12/17 13:06:36;;;;;;;;;;;;;;;-0.58;95.04785;102633;;;;-74
2022/12/17 13:11:33;;;;;;;;;;;;;;;-0.6;95.22363;102634.8;;;;-74
2022/12/17 13:16:31;;;;;;;;;;;;;;;-0.64;95.25;102631;;;;-75
2022/12/17 13:21:32;;;;;;;;;;;;;;;-0.7;95.46094;102631.7;;;;-74
2022/12/17 13:24:20;;;;;;;37;14.9;;;;;;;;;;;;;-73
2022/12/17 13:26:27;;;;;;;;;;;;;;;-0.72;95.57324;102632;;;;-74
2022/12/17 13:31:28;;;;;;;;;;;;;;;-0.74;95.74023;102623.7;;;;-74
2022/12/17 13:36:31;;;;;;;;;;;;;;;-0.75;95.88867;102612.6;;;;-74
2022/12/17 13:41:30;;;;;;;;;;;;;;;-0.77;95.91895;102611.4;;;;-76
2022/12/17 13:46:27;;;;;;;;;;;;;;;-0.78;96.0332;102620.4;;;;-74
2022/12/17 13:51:26;;;;;;;;;;;;;;;-0.8;96.125;102616.3;;;;-75
2022/12/17 13:54:07;;;;;;;38.8;15.7;;;;;;;;;;;;;-79
2022/12/17 13:56:33;;;;;;;;;;;;;;;-0.82;96.23926;102622.1;;;;-79
2022/12/17 14:01:26;;;;;;;;;;;;;;;-0.84;96.29688;102629.8;;;;-78
2022/12/17 14:06:31;;;;;;;;;;;;;;;-0.87;96.23535;102631.4;;;;-78
2022/12/17 14:16:26;;;;;;;;;;;;;;;-0.92;96.31055;102635.8;;;;-78
2022/12/17 14:21:27;;;;;;;;;;;;;;;-0.95;96.32617;102636.2;;;;-79
2022/12/17 14:24:07;;;;;;;35.5;14.4;;;;;;;;;;;;;-79
2022/12/17 14:26:26;;;;;;;;;;;;;;;-1;96.38867;102645.7;;;;-79
2022/12/17 14:31:27;;;;;;;;;;;;;;;-1.04;96.28613;102641.9;;;;-78
2022/12/17 14:36:26;;;;;;;;;;;;;;;-1.07;96.33105;102649;;;;-79
2022/12/17 14:46:26;;;;;;;;;;;;;;;-1.13;96.25488;102658.1;;;;-78
2022/12/17 14:51:34;;;;;;;;;;;;;;;-1.18;96.28516;102660.3;;;;-78
2022/12/17 14:54:17;;;;;;;39;16.1;;;;;;;;;;;;;-78
2022/12/17 14:56:27;;;;;;;;;;;;;;;-1.23;96.33984;102663.9;;;;-78
2022/12/17 15:01:26;;;;;;;;;;;;;;;-1.28;96.44434;102663.8;;;;-79
2022/12/17 15:06:26;;;;;;;;;;;;;;;-1.34;96.5166;102663.6;;;;-78
2022/12/17 15:11:27;;;;;;;;;;;;;;;-1.41;96.55762;102672.5;;;;-78
2022/12/17 15:16:26;;;;;;;;;;;;;;;-1.47;96.58594;102683.5;;;;-74
2022/12/17 15:21:26;;;;;;;;;;;;;;;-1.52;96.66797;102700.8;;;;-75
2022/12/17 15:24:04;;;;;;;37.6;14.9;;;;;;;;;;;;;-75
2022/12/17 15:26:28;;;;;;;;;;;;;;;-1.59;96.67676;102712.5;;;;-76
2022/12/17 15:31:25;;;;;;;;;;;;;;;-1.66;96.79883;102714.4;;;;-75
2022/12/17 15:36:26;;;;;;;;;;;;;;;-1.72;96.91113;102714.8;;;;-74
2022/12/17 15:46:28;;;;;;;;;;;;;;;-1.84;96.83105;102718.5;;;;-74
2022/12/17 15:51:26;;;;;;;;;;;;;;;-1.89;97.04492;102733.6;;;;-73
2022/12/17 15:54:02;;;;;;;33.5;12.7;;;;;;;;;;;;;-74
2022/12/17 15:56:27;;;;;;;;;;;;;;;-1.96;96.92383;102728.6;;;;-75
2022/12/17 16:01:25;;;;;;;;;;;;;;;-2.04;96.93457;102723.2;;;;-75
2022/12/17 16:06:26;;;;;;;;;;;;;;;-2.11;97.14453;102726.8;;;;-73
2022/12/17 16:11:26;;;;;;;;;;;;;;;-2.13;96.92676;102728.3;;;;-73
2022/12/17 16:16:26;;;;;;;;;;;;;;;-2.2;97.14551;102733.4;;;;-74
2022/12/17 16:21:26;;;;;;;;;;;;;;;-2.25;97.00488;102725.8;;;;-72
2022/12/17 16:24:01;;;;;;;32.8;11.9;;;;;;;;;;;;;-76
2022/12/17 16:26:25;;;;;;;;;;;;;;;-2.28;97.01953;102733.9;;;;-75
2022/12/17 16:31:26;;;;;;;;;;;;;;;-2.32;96.8916;102739.7;;;;-74
2022/12/17 16:36:26;;;;;;;;;;;;;;;-2.39;97.09082;102734.7;;;;-74
2022/12/17 16:41:26;;;;;;;;;;;;;;;-2.43;96.91211;102736.6;;;;-73
2022/12/17 16:46:33;;;;;;;;;;;;;;;-2.5;97.03418;102740.7;;;;-74
2022/12/17 16:51:26;;;;;;;;;;;;;;;-2.55;97.10938;102738.7;;;;-73
2022/12/17 16:53:59;;;;;;;32.1;11.2;;;;;;;;;;;;;-72
2022/12/17 16:56:27;;;;;;;;;;;;;;;-2.58;97.02637;102736.7;;;;-74
2022/12/17 17:01:27;;;;;;;;;;;;;;;-2.63;97.08984;102738.7;;;;-74
2022/12/17 17:06:26;;;;;;;;;;;;;;;-2.68;97.08008;102739.9;;;;-74
2022/12/17 17:11:26;;;;;;;;;;;;;;;-2.72;97.24023;102746.6;;;;-73
2022/12/17 17:16:29;;;;;;;;;;;;;;;-2.72;97.15527;102747;;;;-74
2022/12/17 17:21:33;;;;;;;;;;;;;;;-2.73;97.03516;102756.4;;;;-74
2022/12/17 17:24:00;;;;;;;31.2;11.3;;;;;;;;;;;;;-73
2022/12/17 17:26:21;;;;;;;;;;;;;;;-2.71;97.18945;102762.1;;;;-71
2022/12/17 17:31:13;;;;;;;;;;;;;;;-2.77;97.03809;102764.7;;;;-73
2022/12/17 17:36:14;;;;;;;;;;;;;;;-2.82;97.03613;102768.6;;;;-73
2022/12/17 17:41:14;;;;;;;;;;;;;;;-2.88;97.12793;102769.5;;;;-74
2022/12/17 17:46:14;;;;;;;;;;;;;;;-2.87;97.13281;102764.8;;;;-74
2022/12/17 17:51:15;;;;;;;;;;;;;;;-2.95;97.15625;102760.6;;;;-73
2022/12/17 17:53:56;;;;;;;30.8;10.7;;;;;;;;;;;;;-78
2022/12/17 17:56:14;;;;;;;;;;;;;;;-2.97;97.32031;102766.7;;;;-78
2022/12/17 18:01:17;;;;;;;;;;;;;;;-2.97;97.18164;102776.5;;;;-78
2022/12/17 18:06:16;;;;;;;;;;;;;;;-2.96;97.12012;102782;;;;-79
2022/12/17 18:11:14;;;;;;;;;;;;;;;-3.02;97.28906;102783.8;;;;-78
2022/12/17 18:16:13;;;;;;;;;;;;;;;-3;97.29297;102781.2;;;;-74
2022/12/17 18:21:14;;;;;;;;;;;;;;;-2.95;97.17578;102784.4;;;;-74
2022/12/17 18:23:58;;;;;;;27.8;10.3;;;;;;;;;;;;;-75
2022/12/17 18:26:15;;;;;;;;;;;;;;;-3.07;97.02051;102782.8;;;;-74
2022/12/17 18:31:16;;;;;;;;;;;;;;;-3.09;97.0166;102777.3;;;;-74
2022/12/17 18:36:19;;;;;;;;;;;;;;;-3.12;97.07422;102776.7;;;;-74
2022/12/17 18:46:13;;;;;;;;;;;;;;;-3.13;97.09082;102782.3;;;;-74
2022/12/17 18:51:13;;;;;;;;;;;;;;;-3.16;97.01074;102787.8;;;;-74
2022/12/17 18:53:53;;;;;;;25.6;9.4;;;;;;;;;;;;;-74
2022/12/17 18:56:15;;;;;;;;;;;;;;;-3.18;97.04883;102799.2;;;;-74
2022/12/17 19:01:20;;;;;;;;;;;;;;;-3.2;96.94922;102806.3;;;;-74
2022/12/17 19:06:13;;;;;;;;;;;;;;;-3.28;97.08105;102808.4;;;;-74
2022/12/17 19:11:14;;;;;;;;;;;;;;;-3.27;97.16699;102801.6;;;;-73
2022/12/17 19:16:14;;;;;;;;;;;;;;;-3.31;97.03027;102805.2;;;;-74
2022/12/17 19:21:14;;;;;;;;;;;;;;;-3.35;97.13965;102810.6;;;;-75
2022/12/17 19:23:51;;;;;;;26.4;9.4;;;;;;;;;;;;;-74
2022/12/17 19:26:15;;;;;;;;;;;;;;;-3.37;96.99414;102810.7;;;;-73
2022/12/17 19:31:14;;;;;;;;;;;;;;;-3.34;97.06445;102819.4;;;;-73
2022/12/17 19:36:14;;;;;;;;;;;;;;;-3.38;96.95215;102826.3;;;;-75
2022/12/17 19:41:14;;;;;;;;;;;;;;;-3.37;96.9834;102826.3;;;;-73
2022/12/17 19:46:14;;;;;;;;;;;;;;;-3.43;96.89648;102820.6;;;;-74
2022/12/17 19:51:14;;;;;;;;;;;;;;;-3.45;96.97754;102821.9;;;;-74
2022/12/17 19:53:49;;;;;;;24.1;8.7;;;;;;;;;;;;;-75
2022/12/17 19:56:17;;;;;;;;;;;;;;;-3.42;97.10156;102820.4;;;;-79
2022/12/17 20:01:14;;;;;;;;;;;;;;;-3.42;96.81348;102831.5;;;;-79
2022/12/17 20:06:14;;;;;;;;;;;;;;;-3.41;96.8457;102840.1;;;;-78
2022/12/17 20:16:13;;;;;;;;;;;;;;;-3.48;96.81152;102838.6;;;;-78
2022/12/17 20:21:13;;;;;;;;;;;;;;;-3.48;96.98047;102838.3;;;;-77
2022/12/17 20:23:48;;;;;;;26.4;9;;;;;;;;;;;;;-76
2022/12/17 20:26:14;;;;;;;;;;;;;;;-3.49;96.78613;102845.2;;;;-78
2022/12/17 20:31:13;;;;;;;;;;;;;;;-3.48;97.01465;102852.3;;;;-79
2022/12/17 20:36:14;;;;;;;;;;;;;;;-3.47;96.99316;102852.5;;;;-77
2022/12/17 20:41:16;;;;;;;;;;;;;;;-3.51;96.85645;102849;;;;-77
2022/12/17 20:46:16;;;;;;;;;;;;;;;-3.5;96.77637;102860;;;;-78
2022/12/17 20:51:15;;;;;;;;;;;;;;;-3.55;96.85938;102852.5;;;;-78
2022/12/17 20:53:48;;;;;;;29;10.1;;;;;;;;;;;;;-78
2022/12/17 20:56:14;;;;;;;;;;;;;;;-3.56;96.85547;102853.5;;;;-80
2022/12/17 21:01:14;;;;;;;;;;;;;;;-3.56;96.9209;102857;;;;-78
2022/12/17 21:06:14;;;;;;;;;;;;;;;-3.59;96.88086;102863.6;;;;-78
2022/12/17 21:11:13;;;;;;;;;;;;;;;-3.63;96.9043;102858.4;;;;-77
2022/12/17 21:16:15;;;;;;;;;;;;;;;-3.62;96.93848;102852.7;;;;-78
2022/12/17 21:21:17;;;;;;;;;;;;;;;-3.64;96.83789;102850.8;;;;-78
2022/12/17 21:23:44;;;;;;;31.1;9.7;;;;;;;;;;;;;-77
2022/12/17 21:26:15;;;;;;;;;;;;;;;-3.69;96.79395;102871.6;;;;-78
2022/12/17 21:31:17;;;;;;;;;;;;;;;-3.73;96.83887;102874.3;;;;-78
2022/12/17 21:36:13;;;;;;;;;;;;;;;-3.75;96.72852;102880.6;;;;-78
2022/12/17 21:41:15;;;;;;;;;;;;;;;-3.78;96.74316;102886.4;;;;-78
2022/12/17 21:46:13;;;;;;;;;;;;;;;-3.81;96.71387;102896;;;;-77
2022/12/17 21:51:14;;;;;;;;;;;;;;;-3.84;96.63281;102896.6;;;;-77
2022/12/17 21:53:43;;;;;;;31.1;10.2;;;;;;;;;;;;;-78
2022/12/17 21:56:14;;;;;;;;;;;;;;;-3.87;96.60547;102909;;;;-78
2022/12/17 22:01:18;;;;;;;;;;;;;;;-3.92;96.50781;102914.5;;;;-77
2022/12/17 22:06:14;;;;;;;;;;;;;;;-3.96;96.66797;102915.5;;;;-78
2022/12/17 22:11:16;;;;;;;;;;;;;;;-3.99;96.40625;102920.1;;;;-77
2022/12/17 22:16:13;;;;;;;;;;;;;;;-4.02;96.35742;102929.2;;;;-78
2022/12/17 22:21:13;;;;;;;;;;;;;;;-4.02;96.33594;102924.7;;;;-77
2022/12/17 22:23:41;;;;;;;31.9;10.1;;;;;;;;;;;;;-77
2022/12/17 22:26:15;;;;;;;;;;;;;;;-4.04;96.45996;102919.9;;;;-72
2022/12/17 22:36:13;;;;;;;;;;;;;;;-4.1;96.38184;102907.2;;;;-73
2022/12/17 22:43:28;;;;;;;;;;;;;;;-4.12;96.12207;102907.5;;;;-74
2022/12/17 22:46:13;;;;;;;;;;;;;;;-4.13;96.33496;102904.5;;;;-73
2022/12/17 22:51:16;;;;;;;;;;;;;;;-4.21;96.36719;102892.4;;;;-73
2022/12/17 22:53:39;;;;;;;27.2;8.9;;;;;;;;;;;;;-73
2022/12/17 22:56:13;;;;;;;;;;;;;;;-4.21;96.25195;102902.6;;;;-74
2022/12/17 23:01:13;;;;;;;;;;;;;;;-4.24;96.42285;102916.1;;;;-72
2022/12/17 23:06:14;;;;;;;;;;;;;;;-4.27;96.24805;102931.2;;;;-73
2022/12/17 23:11:14;;;;;;;;;;;;;;;-4.29;96.22363;102939.4;;;;-74
2022/12/17 23:16:13;;;;;;;;;;;;;;;-4.32;96.24707;102928.8;;;;-72
2022/12/17 23:21:15;;;;;;;;;;;;;;;-4.39;96.25391;102924.5;;;;-72
2022/12/17 23:23:38;;;;;;;26.8;8.5;;;;;;;;;;;;;-73
2022/12/17 23:26:15;;;;;;;;;;;;;;;-4.39;96.26367;102919.7;;;;-74
2022/12/17 23:31:15;;;;;;;;;;;;;;;-4.43;96.03027;102920.9;;;;-74
2022/12/17 23:36:14;;;;;;;;;;;;;;;-4.47;96.16016;102911.2;;;;-73
2022/12/17 23:41:15;;;;;;;;;;;;;;;-4.49;96.21777;102915.1;;;;-76
2022/12/17 23:46:14;;;;;;;;;;;;;;;-4.48;96.19043;102921.2;;;;-78
2022/12/17 23:51:13;;;;;;;;;;;;;;;-4.51;95.96973;102921.2;;;;-78
2022/12/17 23:53:47;;;;;;;26.6;9;;;;;;;;;;;;;-78
2022/12/17 23:56:14;;;;;;;;;;;;;;;-4.53;96.0293;102899;;;;-77
